createdAt,value
2018-12-11T00:00:42.405Z,101465.34
2018-12-11T00:03:10.040Z,101462.76
2018-12-11T00:05:37.828Z,101466.66
2018-12-11T00:08:05.448Z,101474.50
2018-12-11T00:10:33.217Z,101471.88
2018-12-11T00:13:00.872Z,101478.86
2018-12-11T00:15:28.439Z,101477.55
2018-12-11T00:17:56.061Z,101480.17
2018-12-11T00:20:23.693Z,101479.28
2018-12-11T00:22:51.347Z,101485.81
2018-12-11T00:25:19.026Z,101491.05
2018-12-11T00:27:46.632Z,101490.64
2018-12-11T00:30:14.690Z,101491.05
2018-12-11T00:32:42.271Z,101484.09
2018-12-11T00:35:09.877Z,101485.82
2018-12-11T00:37:37.530Z,101475.83
2018-12-11T00:40:05.730Z,101479.28
2018-12-11T00:42:33.393Z,101480.59
2018-12-11T00:45:01.082Z,101485.82
2018-12-11T00:47:28.738Z,101482.36
2018-12-11T00:49:56.339Z,101483.66
2018-12-11T00:52:24.049Z,101493.68
2018-12-11T00:54:51.653Z,101488.91
2018-12-11T00:57:19.279Z,101488.02
2018-12-11T00:59:46.901Z,101493.67
2018-12-11T01:02:14.531Z,101495.86
2018-12-11T01:04:42.249Z,101496.70
2018-12-11T01:07:09.980Z,101497.17
2018-12-11T01:09:37.630Z,101504.13
2018-12-11T01:12:05.231Z,101506.27
2018-12-11T01:14:32.981Z,101506.73
2018-12-11T01:17:00.667Z,101502.33
2018-12-11T01:19:28.278Z,101505.42
2018-12-11T01:21:55.969Z,101507.16
2018-12-11T01:24:23.574Z,101511.98
2018-12-11T01:26:51.332Z,101511.10
2018-12-11T01:29:18.933Z,101514.13
2018-12-11T01:31:46.552Z,101515.44
2018-12-11T01:34:14.197Z,101522.87
2018-12-11T01:36:41.838Z,101528.53
2018-12-11T01:39:09.627Z,101528.09
2018-12-11T01:41:37.279Z,101535.06
2018-12-11T01:44:04.944Z,101528.11
2018-12-11T01:46:32.561Z,101524.18
2018-12-11T01:49:00.178Z,101528.94
2018-12-11T01:51:27.784Z,101535.48
2018-12-11T01:53:55.444Z,101531.14
2018-12-11T01:56:23.098Z,101529.84
2018-12-11T01:58:50.729Z,101531.61
2018-12-11T02:01:18.414Z,101532.91
2018-12-11T02:03:46.054Z,101523.75
2018-12-11T02:06:13.858Z,101539.89
2018-12-11T02:08:42.367Z,101527.67
2018-12-11T02:11:10.020Z,101536.80
2018-12-11T02:13:37.752Z,101532.86
2018-12-11T02:16:05.391Z,101531.55
2018-12-11T02:18:32.972Z,101532.84
2018-12-11T02:21:00.708Z,101538.57
2018-12-11T02:23:28.334Z,101522.88
2018-12-11T02:25:55.909Z,101533.75
2018-12-11T02:28:23.624Z,101529.84
2018-12-11T02:30:51.461Z,101535.97
2018-12-11T02:33:19.129Z,101532.02
2018-12-11T02:35:46.740Z,101533.33
2018-12-11T02:38:14.422Z,101538.99
2018-12-11T02:40:42.099Z,101545.54
2018-12-11T02:43:09.741Z,101539.46
2018-12-11T02:45:37.354Z,101536.84
2018-12-11T02:48:04.971Z,101546.86
2018-12-11T02:50:32.625Z,101553.39
2018-12-11T02:53:00.260Z,101550.80
2018-12-11T02:55:28.058Z,101546.50
2018-12-11T02:57:55.705Z,101554.72
2018-12-11T03:00:23.354Z,101553.39
2018-12-11T03:02:51.125Z,101563.86
2018-12-11T03:05:18.747Z,101570.81
2018-12-11T03:07:46.360Z,101576.95
2018-12-11T03:10:14.049Z,101568.63
2018-12-11T03:12:41.714Z,101578.27
2018-12-11T03:15:09.331Z,101583.93
2018-12-11T03:17:36.999Z,101582.20
2018-12-11T03:20:05.034Z,101587.45
2018-12-11T03:22:32.601Z,101583.92
2018-12-11T03:25:00.372Z,101579.56
2018-12-11T03:27:27.992Z,101578.68
2018-12-11T03:29:55.615Z,101576.53
2018-12-11T03:32:23.232Z,101587.44
2018-12-11T03:34:50.840Z,101577.86
2018-12-11T03:37:18.514Z,101575.25
2018-12-11T03:39:46.110Z,101599.65
2018-12-11T03:42:13.711Z,101596.61
2018-12-11T03:44:41.356Z,101597.48
2018-12-11T03:47:08.935Z,101602.73
2018-12-11T03:49:36.684Z,101604.47
2018-12-11T03:52:04.305Z,101604.47
2018-12-11T03:54:31.939Z,101606.66
2018-12-11T03:56:59.635Z,101598.80
2018-12-11T03:59:27.366Z,101602.30
2018-12-11T04:01:55.032Z,101607.09
2018-12-11T04:04:22.747Z,101605.78
2018-12-11T04:06:50.390Z,101601.44
2018-12-11T04:09:18.007Z,101595.36
2018-12-11T04:11:45.728Z,101602.33
2018-12-11T04:14:13.342Z,101607.56
2018-12-11T04:16:41.011Z,101601.48
2018-12-11T04:19:08.789Z,101606.27
2018-12-11T04:21:36.435Z,101607.61
2018-12-11T04:24:04.045Z,101602.38
2018-12-11T04:26:31.832Z,101616.31
2018-12-11T04:28:59.437Z,101618.93
2018-12-11T04:31:27.025Z,101611.50
2018-12-11T04:33:54.650Z,101612.39
2018-12-11T04:36:22.272Z,101618.92
2018-12-11T04:38:49.840Z,101619.77
2018-12-11T04:41:17.472Z,101629.34
2018-12-11T04:43:45.209Z,101632.42
2018-12-11T04:46:12.809Z,101632.84
2018-12-11T04:48:40.587Z,101642.85
2018-12-11T04:51:08.211Z,101642.42
2018-12-11T04:53:35.807Z,101640.22
2018-12-11T04:56:03.629Z,101648.50
2018-12-11T04:58:31.203Z,101648.96
2018-12-11T05:00:58.835Z,101648.08
2018-12-11T05:03:26.493Z,101650.70
2018-12-11T05:05:54.095Z,101653.31
2018-12-11T05:08:21.677Z,101647.60
2018-12-11T05:10:49.330Z,101650.64
2018-12-11T05:13:16.971Z,101656.77
2018-12-11T05:15:44.595Z,101656.77
2018-12-11T05:18:12.242Z,101658.50
2018-12-11T05:20:39.866Z,101658.96
2018-12-11T05:23:07.549Z,101664.16
2018-12-11T05:25:35.319Z,101666.34
2018-12-11T05:28:03.042Z,101666.77
2018-12-11T05:30:30.641Z,101669.84
2018-12-11T05:32:58.397Z,101669.84
2018-12-11T05:35:25.971Z,101668.08
2018-12-11T05:37:53.605Z,101671.11
2018-12-11T05:40:21.230Z,101673.30
2018-12-11T05:42:48.859Z,101680.67
2018-12-11T05:45:16.459Z,101676.34
2018-12-11T05:47:44.171Z,101681.16
2018-12-11T05:50:11.842Z,101677.30
2018-12-11T05:52:39.597Z,101691.70
2018-12-11T05:55:07.209Z,101693.86
2018-12-11T05:57:35.040Z,101700.41
2018-12-11T06:00:03.182Z,101693.44
2018-12-11T06:02:31.649Z,101698.67
2018-12-11T06:04:59.962Z,101696.94
2018-12-11T06:07:27.716Z,101707.00
2018-12-11T06:09:55.368Z,101708.73
2018-12-11T06:12:22.975Z,101708.30
2018-12-11T06:14:50.713Z,101713.08
2018-12-11T06:17:18.266Z,101713.97
2018-12-11T06:19:45.860Z,101722.71
2018-12-11T06:22:13.547Z,101726.19
2018-12-11T06:24:41.109Z,101726.19
2018-12-11T06:27:08.689Z,101729.73
2018-12-11T06:29:36.319Z,101731.88
2018-12-11T06:32:04.006Z,101736.28
2018-12-11T06:34:31.564Z,101741.09
2018-12-11T06:36:59.135Z,101736.70
2018-12-11T06:39:26.701Z,101738.48
2018-12-11T06:41:54.291Z,101741.09
2018-12-11T06:44:21.883Z,101739.32
2018-12-11T06:46:49.473Z,101740.17
2018-12-11T06:49:17.038Z,101741.94
2018-12-11T06:51:44.665Z,101739.28
2018-12-11T06:54:12.247Z,101741.47
2018-12-11T06:56:39.811Z,101747.14
2018-12-11T06:59:07.521Z,101747.17
2018-12-11T07:01:35.143Z,101751.06
2018-12-11T07:04:02.702Z,101748.44
2018-12-11T07:06:30.346Z,101758.50
2018-12-11T07:08:57.963Z,101758.92
2018-12-11T07:11:25.526Z,101767.66
2018-12-11T07:13:53.196Z,101773.32
2018-12-11T07:16:20.890Z,101769.86
2018-12-11T07:18:48.513Z,101767.20
2018-12-11T07:21:16.187Z,101767.23
2018-12-11T07:23:43.753Z,101764.62
2018-12-11T07:26:11.314Z,101761.12
2018-12-11T07:28:39.039Z,101767.70
2018-12-11T07:31:06.654Z,101769.86
2018-12-11T07:33:34.268Z,101767.23
2018-12-11T07:36:01.895Z,101769.86
2018-12-11T07:38:29.560Z,101775.98
2018-12-11T07:40:57.141Z,101782.99
2018-12-11T07:43:24.776Z,101780.38
2018-12-11T07:45:52.355Z,101781.23
2018-12-11T07:48:19.998Z,101782.11
2018-12-11T07:50:47.594Z,101789.09
2018-12-11T07:53:15.163Z,101791.70
2018-12-11T07:55:42.788Z,101791.28
2018-12-11T07:58:10.367Z,101796.52
2018-12-11T08:00:37.965Z,101796.09
2018-12-11T08:03:05.612Z,101797.40
2018-12-11T08:05:33.245Z,101802.59
2018-12-11T08:08:00.877Z,101805.68
2018-12-11T08:10:28.421Z,101808.27
2018-12-11T08:12:56.039Z,101810.03
2018-12-11T08:15:23.673Z,101817.46
2018-12-11T08:17:51.343Z,101821.39
2018-12-11T08:20:18.938Z,101817.89
2018-12-11T08:22:46.507Z,101817.89
2018-12-11T08:25:14.094Z,101825.74
2018-12-11T08:27:41.643Z,101831.87
2018-12-11T08:30:09.364Z,101832.30
2018-12-11T08:32:36.932Z,101832.30
2018-12-11T08:35:04.684Z,101834.03
2018-12-11T08:37:32.338Z,101837.95
2018-12-11T08:39:59.917Z,101843.62
2018-12-11T08:42:27.475Z,101846.66
2018-12-11T08:44:55.102Z,101850.16
2018-12-11T08:47:22.682Z,101853.64
2018-12-11T08:49:50.313Z,101860.19
2018-12-11T08:52:17.968Z,101863.23
2018-12-11T08:54:45.593Z,101860.19
2018-12-11T08:57:13.335Z,101864.11
2018-12-11T08:59:40.926Z,101866.73
2018-12-11T09:02:08.475Z,101868.05
2018-12-11T09:04:36.034Z,101869.78
2018-12-11T09:07:03.640Z,101875.44
2018-12-11T09:09:31.345Z,101876.75
2018-12-11T09:11:58.990Z,101874.13
2018-12-11T09:14:26.697Z,101877.17
2018-12-11T09:16:54.295Z,101879.80
2018-12-11T09:19:21.903Z,101878.02
2018-12-11T09:21:49.495Z,101876.25
2018-12-11T09:24:17.112Z,101883.23
2018-12-11T09:26:44.711Z,101884.58
2018-12-11T09:29:12.299Z,101883.73
2018-12-11T09:31:39.898Z,101877.63
2018-12-11T09:34:07.456Z,101887.66
2018-12-11T09:36:35.122Z,101898.56
2018-12-11T09:39:04.685Z,101900.75
2018-12-11T09:41:32.291Z,101898.56
2018-12-11T09:44:00.039Z,101904.69
2018-12-11T09:46:27.686Z,101903.34
2018-12-11T09:48:55.480Z,101908.16
2018-12-11T09:51:23.088Z,101904.19
2018-12-11T09:53:50.688Z,101903.77
2018-12-11T09:56:18.598Z,101899.84
2018-12-11T09:58:46.197Z,101901.56
2018-12-11T10:01:13.842Z,101905.07
2018-12-11T10:03:41.478Z,101901.11
2018-12-11T10:06:09.181Z,101901.53
2018-12-11T10:08:36.900Z,101906.77
2018-12-11T10:11:04.484Z,101904.15
2018-12-11T10:13:32.043Z,101902.84
2018-12-11T10:15:59.642Z,101908.08
2018-12-11T10:18:27.243Z,101895.83
2018-12-11T10:20:54.876Z,101910.23
2018-12-11T10:23:22.924Z,101909.77
2018-12-11T10:25:50.511Z,101906.72
2018-12-11T10:28:18.299Z,101908.45
2018-12-11T10:30:48.004Z,101906.27
2018-12-11T10:33:16.129Z,101904.98
2018-12-11T10:35:43.718Z,101907.14
2018-12-11T10:38:11.332Z,101911.53
2018-12-11T10:40:38.941Z,101910.65
2018-12-11T10:43:06.491Z,101916.35
2018-12-11T10:45:34.139Z,101914.16
2018-12-11T10:48:01.742Z,101920.28
2018-12-11T10:50:29.352Z,101916.36
2018-12-11T10:52:57.086Z,101917.21
2018-12-11T10:55:24.719Z,101918.09
2018-12-11T10:57:52.344Z,101915.05
2018-12-11T11:00:25.534Z,101917.66
2018-12-11T11:02:58.747Z,101916.77
2018-12-11T11:05:26.426Z,101925.06
2018-12-11T11:07:54.196Z,101928.53
2018-12-11T11:10:21.839Z,101928.99
2018-12-11T11:12:49.430Z,101925.95
2018-12-11T11:17:51.572Z,101931.19
2018-12-11T11:20:19.194Z,101926.80
2018-12-11T11:22:46.888Z,101925.95
2018-12-11T11:25:14.495Z,101939.48
2018-12-11T11:27:42.083Z,101932.93
2018-12-11T11:30:09.840Z,101939.91
2018-12-11T11:32:37.428Z,101943.84
2018-12-11T11:35:06.239Z,101939.44
2018-12-11T11:37:34.207Z,101941.20
2018-12-11T11:40:01.822Z,101942.48
2018-12-11T11:42:29.680Z,101939.90
2018-12-11T11:44:57.349Z,101945.57
2018-12-11T11:47:24.989Z,101953.90
2018-12-11T11:49:52.567Z,101948.20
2018-12-11T11:52:20.156Z,101950.81
2018-12-11T11:54:47.753Z,101953.02
2018-12-11T11:57:15.463Z,101956.06
2018-12-11T11:59:43.066Z,101956.05
2018-12-11T12:02:12.202Z,101956.91
2018-12-11T12:04:39.846Z,101962.15
2018-12-11T12:07:07.416Z,101952.08
2018-12-11T12:09:35.079Z,101949.45
2018-12-11T12:12:02.676Z,101955.59
2018-12-11T12:14:30.436Z,101963.88
2018-12-11T12:16:58.337Z,101963.00
2018-12-11T12:19:25.952Z,101964.30
2018-12-11T12:21:53.605Z,101968.66
2018-12-11T12:24:24.730Z,101969.54
2018-12-11T12:26:58.522Z,101971.70
2018-12-11T12:29:26.229Z,101974.31
2018-12-11T12:31:53.784Z,101968.61
2018-12-11T12:34:21.500Z,101973.00
2018-12-11T12:36:49.342Z,101977.36
2018-12-11T12:39:17.073Z,101979.98
2018-12-11T12:41:44.737Z,101979.09
2018-12-11T12:44:12.369Z,101978.63
2018-12-11T12:46:40.004Z,101973.80
2018-12-11T12:49:07.629Z,101977.30
2018-12-11T12:51:35.263Z,101983.40
2018-12-11T12:54:02.992Z,101982.50
2018-12-11T12:56:30.624Z,101981.59
2018-12-11T12:58:58.265Z,101986.36
2018-12-11T13:01:25.908Z,101993.77
2018-12-11T13:03:53.901Z,101995.50
2018-12-11T13:06:21.756Z,101998.12
2018-12-11T13:08:49.369Z,101995.49
2018-12-11T13:11:17.011Z,101994.60
2018-12-11T13:13:44.636Z,102000.31
2018-12-11T13:16:12.981Z,102006.00
2018-12-11T13:18:40.733Z,101999.02
2018-12-11T13:21:08.427Z,102003.84
2018-12-11T13:23:42.724Z,102008.62
2018-12-11T13:26:10.419Z,102017.33
2018-12-11T13:28:38.050Z,102013.37
2018-12-11T13:31:05.674Z,102014.23
2018-12-11T13:33:33.312Z,102020.80
2018-12-11T13:36:00.972Z,102025.20
2018-12-11T13:38:28.774Z,102020.42
2018-12-11T13:40:56.618Z,102020.42
2018-12-11T13:43:24.275Z,102028.73
2018-12-11T13:45:51.933Z,102031.36
2018-12-11T13:48:23.493Z,102046.27
2018-12-11T13:50:49.513Z,102044.11
2018-12-11T13:53:17.142Z,102048.52
2018-12-11T13:55:44.807Z,102050.30
2018-12-11T13:58:12.547Z,102055.09
2018-12-11T14:00:40.172Z,102051.61
2018-12-11T14:03:07.864Z,102053.35
2018-12-11T14:05:35.538Z,102059.91
2018-12-11T14:08:03.158Z,102066.52
2018-12-11T14:10:30.899Z,102071.76
2018-12-11T14:12:58.528Z,102068.28
2018-12-11T14:15:26.209Z,102066.09
2018-12-11T14:17:53.988Z,102069.14
2018-12-11T14:20:21.607Z,102077.89
2018-12-11T14:22:49.281Z,102077.47
2018-12-11T14:25:16.915Z,102077.02
2018-12-11T14:27:44.531Z,102086.19
2018-12-11T14:30:12.199Z,102086.66
2018-12-11T14:32:39.868Z,102091.90
2018-12-11T14:35:07.478Z,102090.16
2018-12-11T14:37:35.120Z,102094.09
2018-12-11T14:40:02.798Z,102093.67
2018-12-11T14:42:30.434Z,102092.81
2018-12-11T14:44:58.060Z,102095.44
2018-12-11T14:47:25.785Z,102098.06
2018-12-11T14:49:53.426Z,102100.69
2018-12-11T14:52:20.995Z,102111.17
2018-12-11T14:54:48.749Z,102105.92
2018-12-11T14:57:16.452Z,102108.13
2018-12-11T14:59:44.113Z,102108.13
2018-12-11T15:02:12.523Z,102104.19
2018-12-11T15:04:40.233Z,102106.81
2018-12-11T15:07:07.938Z,102108.13
2018-12-11T15:09:47.529Z,102108.58
2018-12-11T15:12:18.424Z,102109.46
2018-12-11T15:14:46.070Z,102119.07
2018-12-11T15:17:13.783Z,102116.88
2018-12-11T15:19:41.406Z,102121.27
2018-12-11T15:22:09.082Z,102117.30
2018-12-11T15:24:36.732Z,102123.00
2018-12-11T15:27:04.385Z,102126.05
2018-12-11T15:29:32.007Z,102124.73
2018-12-11T15:31:59.646Z,102117.76
2018-12-11T15:34:27.404Z,102121.69
2018-12-11T15:36:55.036Z,102122.58
2018-12-11T15:39:22.702Z,102122.58
2018-12-11T15:41:50.372Z,102130.44
2018-12-11T15:44:17.987Z,102128.25
2018-12-11T15:46:45.712Z,102132.61
2018-12-11T15:49:13.451Z,102131.30
2018-12-11T15:51:41.175Z,102118.20
2018-12-11T15:54:08.937Z,102129.98
2018-12-11T15:56:36.608Z,102131.30
2018-12-11T15:59:04.364Z,102129.10
2018-12-11T16:01:31.985Z,102129.98
2018-12-11T16:03:59.655Z,102136.97
2018-12-11T16:06:27.277Z,102139.59
2018-12-11T16:08:54.900Z,102142.24
2018-12-11T16:11:22.528Z,102149.68
2018-12-11T16:13:50.149Z,102149.22
2018-12-11T16:16:17.895Z,102150.09
2018-12-11T16:18:45.526Z,102152.30
2018-12-11T16:21:13.207Z,102156.23
2018-12-11T16:23:40.950Z,102159.73
2018-12-11T16:26:08.543Z,102160.61
2018-12-11T16:28:36.123Z,102168.91
2018-12-11T16:31:03.806Z,102165.40
2018-12-11T16:33:31.486Z,102168.02
2018-12-11T16:35:59.092Z,102165.85
2018-12-11T16:38:26.684Z,102167.59
2018-12-11T16:40:54.334Z,102168.48
2018-12-11T16:43:22.031Z,102173.73
2018-12-11T16:45:49.672Z,102175.89
2018-12-11T16:48:17.403Z,102175.46
2018-12-11T16:50:45.242Z,102175.89
2018-12-11T16:53:12.864Z,102177.62
2018-12-11T16:55:40.552Z,102182.02
2018-12-11T16:58:08.199Z,102179.83
2018-12-11T17:00:35.907Z,102183.75
2018-12-11T17:03:03.557Z,102189.88
2018-12-11T17:05:31.203Z,102197.75
2018-12-11T17:07:58.816Z,102199.04
2018-12-11T17:10:26.463Z,102210.84
2018-12-11T17:12:54.076Z,102212.61
2018-12-11T17:15:24.223Z,102216.09
2018-12-11T17:17:51.885Z,102211.73
2018-12-11T17:20:19.503Z,102217.86
2018-12-11T17:22:47.294Z,102225.72
2018-12-11T17:25:14.936Z,102223.09
2018-12-11T17:27:42.651Z,102222.67
2018-12-11T17:30:10.258Z,102233.58
2018-12-11T17:32:37.865Z,102230.08
2018-12-11T17:35:05.730Z,102235.75
2018-12-11T17:37:33.359Z,102238.83
2018-12-11T17:40:00.953Z,102234.02
2018-12-11T17:42:30.233Z,102229.66
2018-12-11T17:44:57.986Z,102236.19
2018-12-11T17:47:25.584Z,102235.34
2018-12-11T17:49:53.217Z,102243.64
2018-12-11T17:52:20.888Z,102241.87
2018-12-11T17:54:48.539Z,102244.06
2018-12-11T17:57:16.160Z,102247.11
2018-12-11T17:59:43.830Z,102254.56
2018-12-11T18:02:16.012Z,102260.69
2018-12-11T18:04:43.632Z,102268.98
2018-12-11T18:07:11.239Z,102268.98
2018-12-11T18:09:38.837Z,102265.05
2018-12-11T18:12:06.478Z,102271.62
2018-12-11T18:14:34.089Z,102271.17
2018-12-11T18:17:01.706Z,102278.59
2018-12-11T18:19:29.301Z,102275.12
2018-12-11T18:21:56.965Z,102273.80
2018-12-11T18:24:24.542Z,102275.97
2018-12-11T18:26:52.209Z,102274.66
2018-12-11T18:29:19.814Z,102279.91
2018-12-11T18:31:47.478Z,102274.66
2018-12-11T18:34:15.140Z,102273.34
2018-12-11T18:36:42.762Z,102268.99
2018-12-11T18:39:10.518Z,102269.84
2018-12-11T18:41:38.238Z,102265.91
2018-12-11T18:44:05.850Z,102272.05
2018-12-11T18:46:33.447Z,102271.17
2018-12-11T18:49:01.137Z,102274.23
2018-12-11T18:51:28.816Z,102275.55
2018-12-11T18:53:56.462Z,102278.17
2018-12-11T18:56:24.132Z,102271.19
2018-12-11T18:58:51.852Z,102275.97
2018-12-11T19:01:19.462Z,102276.44
2018-12-11T19:03:49.417Z,102276.86
2018-12-11T19:06:16.858Z,102272.05
2018-12-11T19:08:44.463Z,102279.91
2018-12-11T19:11:12.152Z,102280.78
2018-12-11T19:13:39.764Z,102278.61
2018-12-11T19:16:07.381Z,102280.34
2018-12-11T19:18:35.182Z,102276.44
2018-12-11T19:21:02.813Z,102282.97
2018-12-11T19:23:53.740Z,102279.93
2018-12-11T19:26:21.668Z,102281.24
2018-12-11T19:28:49.293Z,102285.61
2018-12-11T19:31:16.910Z,102289.54
2018-12-11T19:33:44.555Z,102289.11
2018-12-11T19:36:12.177Z,102289.52
2018-12-11T19:38:39.791Z,102293.91
2018-12-11T19:41:07.373Z,102296.08
2018-12-11T19:43:35.166Z,102299.16
2018-12-11T19:46:02.791Z,102307.88
2018-12-11T19:48:30.380Z,102296.95
2018-12-11T19:50:58.032Z,102308.75
2018-12-11T19:53:25.637Z,102309.20
2018-12-11T19:55:53.231Z,102307.87
2018-12-11T19:58:20.826Z,102311.40
2018-12-11T20:00:48.454Z,102312.68
2018-12-11T20:03:15.996Z,102315.30
2018-12-11T20:05:43.644Z,102320.98
2018-12-11T20:08:11.224Z,102321.45
2018-12-11T20:10:38.903Z,102320.98
2018-12-11T20:13:06.570Z,102324.92
2018-12-11T20:15:34.174Z,102322.30
2018-12-11T20:18:02.387Z,102327.99
2018-12-11T20:20:33.283Z,102328.44
2018-12-11T20:23:01.568Z,102326.25
2018-12-11T20:25:29.774Z,102325.80
2018-12-11T20:27:58.058Z,102324.06
2018-12-11T20:30:26.156Z,102334.56
2018-12-11T20:32:53.808Z,102331.06
2018-12-11T20:35:22.028Z,102331.47
2018-12-11T20:37:49.583Z,102331.94
2018-12-11T20:40:17.256Z,102333.24
2018-12-11T20:42:45.377Z,102335.41
2018-12-11T20:45:13.136Z,102333.21
2018-12-11T20:47:41.136Z,102335.40
2018-12-11T20:50:08.730Z,102331.05
2018-12-11T20:52:38.176Z,102327.53
2018-12-11T20:55:07.156Z,102342.84
2018-12-11T20:57:34.756Z,102348.06
2018-12-11T21:00:02.535Z,102342.84
2018-12-11T21:02:30.168Z,102345.46
2018-12-11T21:04:57.736Z,102355.06
2018-12-11T21:07:25.591Z,102345.89
2018-12-11T21:09:53.269Z,102347.19
2018-12-11T21:12:20.868Z,102354.20
2018-12-11T21:14:48.502Z,102352.84
2018-12-11T21:17:16.382Z,102359.37
2018-12-11T21:19:44.685Z,102363.77
2018-12-11T21:22:12.324Z,102367.25
2018-12-11T21:24:40.017Z,102365.94
2018-12-11T21:27:07.964Z,102371.17
2018-12-11T21:29:35.690Z,102366.38
2018-12-11T21:32:03.337Z,102367.23
2018-12-11T21:34:31.065Z,102377.70
2018-12-11T21:36:58.831Z,102382.08
2018-12-11T21:39:26.447Z,102379.88
2018-12-11T21:41:54.485Z,102386.88
2018-12-11T21:44:22.153Z,102379.42
2018-12-11T21:46:49.757Z,102386.86
2018-12-11T21:49:19.101Z,102388.19
2018-12-11T21:51:48.617Z,102379.86
2018-12-11T21:54:16.620Z,102388.14
2018-12-11T21:56:45.883Z,102392.53
2018-12-11T21:59:14.007Z,102396.48
2018-12-11T22:01:41.665Z,102397.80
2018-12-11T22:04:09.951Z,102392.10
2018-12-11T22:06:39.002Z,102387.30
2018-12-11T22:09:07.042Z,102392.55
2018-12-11T22:11:35.051Z,102394.74
2018-12-11T22:14:03.840Z,102394.74
2018-12-11T22:16:31.478Z,102394.28
2018-12-11T22:18:59.035Z,102396.05
2018-12-11T22:21:26.825Z,102397.77
2018-12-11T22:23:54.572Z,102396.91
2018-12-11T22:26:22.137Z,102393.44
2018-12-11T22:28:50.193Z,102394.75
2018-12-11T22:31:17.781Z,102398.67
2018-12-11T22:33:45.723Z,102403.48
2018-12-11T22:36:13.337Z,102402.59
2018-12-11T22:38:41.728Z,102406.99
2018-12-11T22:41:09.319Z,102410.92
2018-12-11T22:43:37.008Z,102411.37
2018-12-11T22:46:05.255Z,102412.22
2018-12-11T22:48:33.431Z,102416.16
2018-12-11T22:51:02.201Z,102420.09
2018-12-11T22:53:29.913Z,102417.92
2018-12-11T22:55:57.471Z,102419.67
2018-12-11T22:58:25.039Z,102425.38
2018-12-11T23:00:53.407Z,102424.92
2018-12-11T23:03:21.025Z,102426.64
2018-12-11T23:05:48.705Z,102424.48
2018-12-11T23:08:17.278Z,102429.72
2018-12-11T23:10:45.722Z,102424.91
2018-12-11T23:13:13.382Z,102430.16
2018-12-11T23:15:40.975Z,102436.28
2018-12-11T23:18:09.334Z,102439.34
2018-12-11T23:20:37.524Z,102438.02
2018-12-11T23:23:05.155Z,102445.02
2018-12-11T23:25:33.410Z,102443.73
2018-12-11T23:28:01.072Z,102445.89
2018-12-11T23:30:29.390Z,102452.02
2018-12-11T23:32:57.056Z,102448.08
2018-12-11T23:35:24.776Z,102449.39
2018-12-11T23:37:52.417Z,102452.89
2018-12-11T23:40:20.004Z,102462.48
2018-12-11T23:42:48.089Z,102456.38
2018-12-11T23:45:15.781Z,102458.58
2018-12-11T23:47:43.468Z,102454.20
2018-12-11T23:50:11.093Z,102460.80
2018-12-11T23:52:38.759Z,102465.57
2018-12-11T23:55:06.382Z,102465.16
2018-12-11T23:57:34.353Z,102466.95
